createdAt,value
2022-11-02T00:00:47.563Z,99780.22
2022-11-02T00:03:32.297Z,99775.69
2022-11-02T00:05:59.924Z,99778.97
2022-11-02T00:08:26.997Z,99765.81
2022-11-02T00:10:54.006Z,99770.94
2022-11-02T00:13:21.249Z,99763.75
2022-11-02T00:15:48.540Z,99772.59
2022-11-02T00:18:16.447Z,99763.75
2022-11-02T00:20:43.870Z,99769.09
2022-11-02T00:23:14.623Z,99777.94
2022-11-02T00:25:46.527Z,99779.78
2022-11-02T00:28:14.821Z,99770.94
2022-11-02T00:30:42.895Z,99780.63
2022-11-02T00:33:10.341Z,99773.63
2022-11-02T00:35:38.745Z,99774.44
2022-11-02T00:38:06.256Z,99774.44
2022-11-02T00:40:34.088Z,99775.47
2022-11-02T00:43:01.376Z,99778.97
2022-11-02T00:45:28.384Z,99772.78
2022-11-02T00:47:55.764Z,99775.47
2022-11-02T00:50:22.879Z,99778.13
2022-11-02T00:52:50.099Z,99773.00
2022-11-02T00:55:18.129Z,99774.88
2022-11-02T00:57:45.548Z,99781.88
2022-11-02T01:00:14.839Z,99778.13
2022-11-02T01:02:43.018Z,99774.88
2022-11-02T01:05:11.845Z,99781.03
2022-11-02T01:07:40.001Z,99780.22
2022-11-02T01:10:10.465Z,99779.38
2022-11-02T01:12:40.015Z,99777.53
2022-11-02T01:15:10.300Z,99769.50
2022-11-02T01:17:38.780Z,99768.69
2022-11-02T01:20:07.685Z,99765.81
2022-11-02T01:22:34.925Z,99773.22
2022-11-02T01:25:01.962Z,99775.88
2022-11-02T01:27:29.592Z,99775.09
2022-11-02T01:29:57.106Z,99777.53
2022-11-02T01:32:24.417Z,99771.59
2022-11-02T01:34:51.352Z,99777.75
2022-11-02T01:37:18.556Z,99772.63
2022-11-02T01:39:45.543Z,99769.16
2022-11-02T01:42:22.664Z,99774.50
2022-11-02T01:44:50.263Z,99777.34
2022-11-02T01:47:35.593Z,99777.34
2022-11-02T01:50:13.275Z,99777.34
2022-11-02T01:52:41.461Z,99779.44
2022-11-02T01:55:25.663Z,99777.78
2022-11-02T01:58:00.838Z,99778.81
2022-11-02T02:00:28.148Z,99785.78
2022-11-02T02:03:16.685Z,99790.53
2022-11-02T02:06:01.750Z,99783.56
2022-11-02T02:08:31.283Z,99785.63
2022-11-02T02:10:59.409Z,99790.97
2022-11-02T02:13:29.081Z,99794.69
2022-11-02T02:16:27.813Z,99796.31
2022-11-02T02:19:12.872Z,99789.34
2022-11-02T02:21:53.055Z,99789.34
2022-11-02T02:24:43.827Z,99793.03
2022-11-02T02:27:51.878Z,99791.41
2022-11-02T02:30:19.944Z,99789.75
2022-11-02T02:33:00.719Z,99779.47
2022-11-02T02:35:43.986Z,99785.66
2022-11-02T02:38:22.546Z,99792.25
2022-11-02T02:41:13.192Z,99795.16
2022-11-02T02:43:43.649Z,99792.66
2022-11-02T02:46:37.202Z,99791.03
2022-11-02T02:49:12.571Z,99793.91
2022-11-02T02:51:43.217Z,99795.16
2022-11-02T02:54:21.472Z,99804.63
2022-11-02T02:56:55.924Z,99810.38
2022-11-02T02:59:33.966Z,99818.63
2022-11-02T03:02:05.757Z,99811.63
2022-11-02T03:04:32.856Z,99810.81
2022-11-02T03:07:02.710Z,99809.19
2022-11-02T03:09:48.560Z,99818.22
2022-11-02T03:12:25.563Z,99818.22
2022-11-02T03:15:16.046Z,99814.94
2022-11-02T03:17:52.561Z,99818.66
2022-11-02T03:20:34.837Z,99818.66
2022-11-02T03:23:38.034Z,99819.06
2022-11-02T03:26:27.677Z,99819.50
2022-11-02T03:29:46.648Z,99815.38
2022-11-02T03:32:41.419Z,99820.94
2022-11-02T03:35:21.379Z,99824.03
2022-11-02T03:38:10.821Z,99822.38
2022-11-02T03:40:50.691Z,99822.78
2022-11-02T03:43:21.863Z,99830.00
2022-11-02T03:45:57.829Z,99832.84
2022-11-02T03:48:34.701Z,99824.22
2022-11-02T03:51:11.274Z,99823.59
2022-11-02T03:53:42.477Z,99827.28
2022-11-02T03:56:34.488Z,99820.75
2022-11-02T03:59:03.720Z,99828.97
2022-11-02T04:01:39.228Z,99836.34
2022-11-02T04:04:06.451Z,99833.91
2022-11-02T04:06:35.454Z,99835.97
2022-11-02T04:09:04.388Z,99838.03
2022-11-02T04:11:51.807Z,99836.78
2022-11-02T04:14:37.790Z,99838.00
2022-11-02T04:19:59.124Z,99837.63
2022-11-02T04:22:47.839Z,99835.13
2022-11-02T04:25:19.614Z,99842.53
2022-11-02T04:28:09.601Z,99841.94
2022-11-02T04:30:45.487Z,99844.81
2022-11-02T04:33:31.824Z,99842.16
2022-11-02T04:36:08.076Z,99845.00
2022-11-02T04:38:43.008Z,99847.88
2022-11-02T04:41:37.940Z,99852.19
2022-11-02T04:44:11.698Z,99852.41
2022-11-02T04:46:40.593Z,99847.88
2022-11-02T04:49:10.959Z,99848.91
2022-11-02T04:51:48.714Z,99856.13
2022-11-02T04:54:19.115Z,99864.91
2022-11-02T04:56:50.368Z,99853.22
2022-11-02T04:59:19.464Z,99852.41
2022-11-02T05:01:46.671Z,99855.91
2022-11-02T05:04:16.260Z,99843.38
2022-11-02T05:06:43.420Z,99849.72
2022-11-02T05:09:11.043Z,99846.22
2022-11-02T05:11:42.415Z,99854.84
2022-11-02T05:14:09.653Z,99857.75
2022-11-02T05:16:36.726Z,99865.53
2022-11-02T05:19:06.915Z,99858.56
2022-11-02T05:21:37.860Z,99860.19
2022-11-02T05:24:05.867Z,99857.75
2022-11-02T05:26:34.079Z,99858.56
2022-11-02T05:29:01.416Z,99862.06
2022-11-02T05:31:29.811Z,99870.88
2022-11-02T05:33:58.120Z,99870.88
2022-11-02T05:36:25.401Z,99864.72
2022-11-02T05:38:55.401Z,99861.84
2022-11-02T05:41:23.607Z,99875.19
2022-11-02T05:43:53.714Z,99869.84
2022-11-02T05:46:22.282Z,99874.34
2022-11-02T05:48:49.439Z,99872.53
2022-11-02T05:51:16.871Z,99872.53
2022-11-02T05:53:44.375Z,99886.88
2022-11-02T05:56:12.132Z,99878.88
2022-11-02T05:58:39.373Z,99889.53
2022-11-02T06:01:08.699Z,99896.53
2022-11-02T06:03:36.576Z,99898.19
2022-11-02T06:06:10.436Z,99888.53
2022-11-02T06:08:39.303Z,99891.81
2022-11-02T06:11:08.931Z,99884.41
2022-11-02T06:13:36.680Z,99891.84
2022-11-02T06:16:09.267Z,99892.22
2022-11-02T06:18:37.948Z,99888.13
2022-11-02T06:21:05.820Z,99892.63
2022-11-02T06:23:33.349Z,99894.69
2022-11-02T06:26:01.830Z,99882.75
2022-11-02T06:28:30.938Z,99902.72
2022-11-02T06:30:58.701Z,99897.16
2022-11-02T06:33:26.190Z,99897.97
2022-11-02T06:35:54.949Z,99902.91
2022-11-02T06:38:23.279Z,99904.56
2022-11-02T06:40:59.742Z,99904.16
2022-11-02T06:43:27.007Z,99908.66
2022-11-02T06:45:56.602Z,99899.81
2022-11-02T06:48:29.887Z,99898.97
2022-11-02T06:51:00.320Z,99900.22
2022-11-02T06:53:29.696Z,99893.81
2022-11-02T06:55:59.286Z,99899.59
2022-11-02T06:58:27.419Z,99902.03
2022-11-02T07:01:06.952Z,99902.03
2022-11-02T07:03:35.590Z,99905.75
2022-11-02T07:06:03.830Z,99905.94
2022-11-02T07:08:31.092Z,99912.72
2022-11-02T07:10:58.746Z,99919.31
2022-11-02T07:13:26.285Z,99920.31
2022-11-02T07:15:54.841Z,99910.63
2022-11-02T07:18:23.179Z,99910.63
2022-11-02T07:20:50.749Z,99907.31
2022-11-02T07:23:18.007Z,99907.69
2022-11-02T07:25:44.991Z,99908.13
2022-11-02T07:28:12.351Z,99903.16
2022-11-02T07:30:39.327Z,99899.88
2022-11-02T07:33:06.856Z,99903.53
2022-11-02T07:35:34.312Z,99897.94
2022-11-02T07:38:05.228Z,99903.44
2022-11-02T07:40:35.145Z,99905.03
2022-11-02T07:43:03.489Z,99896.72
2022-11-02T07:45:41.165Z,99899.50
2022-11-02T07:48:08.582Z,99903.38
2022-11-02T07:50:35.644Z,99890.97
2022-11-02T07:53:03.398Z,99895.16
2022-11-02T07:55:31.946Z,99897.06
2022-11-02T07:58:02.411Z,99896.50
2022-11-02T08:00:37.293Z,99894.13
2022-11-02T08:03:07.519Z,99896.03
2022-11-02T08:05:43.001Z,99901.66
2022-11-02T08:08:17.112Z,99900.63
2022-11-02T08:10:46.651Z,99901.38
2022-11-02T08:13:19.473Z,99897.59
2022-11-02T08:15:53.884Z,99900.34
2022-11-02T08:18:26.887Z,99897.97
2022-11-02T08:20:57.239Z,99896.13
2022-11-02T08:23:26.391Z,99901.25
2022-11-02T08:25:55.037Z,99899.31
2022-11-02T08:28:36.541Z,99899.59
2022-11-02T08:31:04.276Z,99892.44
2022-11-02T08:33:31.473Z,99895.56
2022-11-02T08:36:04.567Z,99884.09
2022-11-02T08:38:32.436Z,99885.41
2022-11-02T08:41:00.301Z,99880.63
2022-11-02T08:43:29.721Z,99881.94
2022-11-02T08:46:17.001Z,99879.66
2022-11-02T08:48:45.454Z,99871.53
2022-11-02T08:51:13.145Z,99872.50
2022-11-02T08:53:40.756Z,99876.00
2022-11-02T08:56:08.288Z,99873.44
2022-11-02T08:58:35.511Z,99875.31
2022-11-02T09:01:02.756Z,99868.53
2022-11-02T09:03:30.444Z,99865.41
2022-11-02T09:06:03.404Z,99864.59
2022-11-02T09:08:31.268Z,99865.97
2022-11-02T09:11:03.691Z,99858.56
2022-11-02T09:13:31.201Z,99857.88
2022-11-02T09:15:59.956Z,99860.91
2022-11-02T09:18:28.854Z,99860.06
2022-11-02T09:20:56.580Z,99851.81
2022-11-02T09:23:24.564Z,99850.72
2022-11-02T09:25:51.563Z,99844.22
2022-11-02T09:28:18.896Z,99846.03
2022-11-02T09:30:46.232Z,99845.72
2022-11-02T09:33:13.625Z,99838.59
2022-11-02T09:35:46.132Z,99837.28
2022-11-02T09:38:14.158Z,99828.47
2022-11-02T09:40:45.404Z,99823.44
2022-11-02T09:44:03.453Z,99831.25
2022-11-02T09:46:40.294Z,99827.81
2022-11-02T09:49:16.907Z,99821.09
2022-11-02T09:51:51.804Z,99827.22
2022-11-02T09:54:45.503Z,99823.13
2022-11-02T09:57:21.488Z,99813.53
2022-11-02T09:59:49.580Z,99816.88
2022-11-02T10:02:51.801Z,99812.81
2022-11-02T10:05:48.116Z,99814.63
2022-11-02T10:08:57.007Z,99809.47
2022-11-02T10:11:55.667Z,99802.53
2022-11-02T10:14:34.858Z,99809.16
2022-11-02T10:17:17.570Z,99809.44
2022-11-02T10:19:55.140Z,99806.00
2022-11-02T10:22:32.341Z,99799.06
2022-11-02T10:25:05.584Z,99795.25
2022-11-02T10:27:38.656Z,99794.97
2022-11-02T10:30:19.068Z,99799.97
2022-11-02T10:32:52.684Z,99788.19
2022-11-02T10:36:12.597Z,99790.84
2022-11-02T10:39:01.080Z,99782.78
2022-11-02T10:42:08.409Z,99784.78
2022-11-02T10:45:23.231Z,99778.94
2022-11-02T10:48:36.729Z,99779.84
2022-11-02T10:51:14.268Z,99784.47
2022-11-02T10:53:48.591Z,99773.94
2022-11-02T10:56:24.852Z,99783.19
2022-11-02T10:59:02.288Z,99779.69
2022-11-02T11:01:32.219Z,99772.44
2022-11-02T11:04:03.361Z,99776.47
2022-11-02T11:06:41.293Z,99780.66
2022-11-02T11:09:33.984Z,99782.81
2022-11-02T11:12:32.496Z,99780.13
2022-11-02T11:20:42.543Z,99780.72
2022-11-02T11:23:20.541Z,99780.19
2022-11-02T11:25:58.874Z,99763.97
2022-11-02T11:28:32.764Z,99767.75
2022-11-02T11:31:07.448Z,99765.84
2022-11-02T11:33:47.410Z,99767.69
2022-11-02T11:36:40.970Z,99767.09
2022-11-02T11:39:29.375Z,99763.81
2022-11-02T11:41:57.944Z,99768.59
2022-11-02T11:44:26.287Z,99772.34
2022-11-02T11:46:58.911Z,99773.91
2022-11-02T11:49:55.136Z,99777.16
2022-11-02T11:52:32.113Z,99771.78
2022-11-02T11:55:28.194Z,99772.94
2022-11-02T11:58:24.040Z,99768.09
2022-11-02T12:01:16.319Z,99761.72
2022-11-02T12:04:01.299Z,99763.88
2022-11-02T12:06:54.364Z,99765.00
2022-11-02T12:09:43.332Z,99769.34
2022-11-02T12:12:32.446Z,99770.97
2022-11-02T12:15:30.736Z,99765.03
2022-11-02T12:18:33.456Z,99755.28
2022-11-02T12:21:25.792Z,99759.59
2022-11-02T12:24:03.326Z,99752.28
2022-11-02T12:26:55.489Z,99744.47
2022-11-02T12:29:59.795Z,99735.78
2022-11-02T12:33:17.267Z,99745.81
2022-11-02T12:35:59.529Z,99740.66
2022-11-02T12:39:21.229Z,99733.63
2022-11-02T12:42:45.149Z,99737.44
2022-11-02T12:46:03.306Z,99728.47
2022-11-02T12:48:39.437Z,99736.88
2022-11-02T12:51:21.600Z,99732.00
2022-11-02T12:53:56.488Z,99728.41
2022-11-02T12:56:34.588Z,99725.44
2022-11-02T12:59:02.917Z,99725.47
2022-11-02T13:01:43.172Z,99729.72
2022-11-02T13:04:34.029Z,99731.38
2022-11-02T13:07:12.451Z,99727.63
2022-11-02T13:10:04.695Z,99721.38
2022-11-02T13:12:37.519Z,99720.88
2022-11-02T13:15:11.969Z,99726.53
2022-11-02T13:18:06.375Z,99724.34
2022-11-02T13:20:53.089Z,99729.78
2022-11-02T13:23:43.631Z,99724.41
2022-11-02T13:26:41.319Z,99728.75
2022-11-02T13:29:35.624Z,99729.84
2022-11-02T13:32:16.003Z,99728.22
2022-11-02T13:34:50.170Z,99728.19
2022-11-02T13:37:38.181Z,99723.84
2022-11-02T13:40:28.348Z,99737.16
2022-11-02T13:43:17.311Z,99723.38
2022-11-02T13:45:54.407Z,99737.41
2022-11-02T13:48:48.279Z,99729.56
2022-11-02T13:51:40.333Z,99737.94
2022-11-02T13:54:13.876Z,99738.47
2022-11-02T13:56:57.951Z,99748.25
2022-11-02T13:59:35.907Z,99746.63
2022-11-02T14:02:16.252Z,99745.47
2022-11-02T14:04:45.915Z,99757.38
2022-11-02T14:07:30.256Z,99753.59
2022-11-02T14:10:16.033Z,99757.88
2022-11-02T14:12:48.966Z,99757.59
2022-11-02T14:15:16.336Z,99755.06
2022-11-02T14:18:03.897Z,99762.59
2022-11-02T14:20:39.791Z,99769.06
2022-11-02T14:23:10.085Z,99763.06
2022-11-02T14:25:50.115Z,99760.34
2022-11-02T14:28:23.213Z,99762.72
2022-11-02T14:31:05.991Z,99765.09
2022-11-02T14:33:39.078Z,99774.78
2022-11-02T14:36:29.030Z,99770.97
2022-11-02T14:39:27.821Z,99763.56
2022-11-02T14:42:16.922Z,99765.91
2022-11-02T14:45:21.794Z,99768.53
2022-11-02T14:47:57.358Z,99767.34
2022-11-02T14:50:25.845Z,99769.72
2022-11-02T14:53:07.419Z,99770.75
2022-11-02T14:55:38.321Z,99770.63
2022-11-02T14:58:18.847Z,99769.75
2022-11-02T15:00:49.035Z,99778.81
2022-11-02T15:03:25.367Z,99774.94
2022-11-02T15:06:10.564Z,99778.06
2022-11-02T15:08:58.956Z,99776.34
2022-11-02T15:11:51.013Z,99780.50
2022-11-02T15:14:37.801Z,99778.50
2022-11-02T15:17:16.953Z,99786.22
2022-11-02T15:20:12.140Z,99785.00
2022-11-02T15:22:47.016Z,99786.50
2022-11-02T15:25:25.089Z,99784.16
2022-11-02T15:28:06.104Z,99781.31
2022-11-02T15:30:44.620Z,99788.75
2022-11-02T15:33:54.939Z,99793.03
2022-11-02T15:36:33.908Z,99792.38
2022-11-02T15:39:08.865Z,99796.06
2022-11-02T15:42:14.425Z,99796.47
2022-11-02T15:45:19.980Z,99805.78
2022-11-02T15:48:22.653Z,99811.28
2022-11-02T15:51:20.309Z,99815.19
2022-11-02T15:54:11.325Z,99819.34
2022-11-02T15:57:18.997Z,99816.47
2022-11-02T16:00:07.082Z,99819.81
2022-11-02T16:02:42.677Z,99827.22
2022-11-02T16:05:21.834Z,99841.63
2022-11-02T16:10:39.847Z,99841.81
2022-11-02T16:13:14.552Z,99841.13
2022-11-02T16:15:42.509Z,99834.59
2022-11-02T16:18:53.882Z,99848.75
2022-11-02T16:21:21.825Z,99844.56
2022-11-02T16:23:55.582Z,99844.44
2022-11-02T16:26:28.560Z,99848.69
2022-11-02T16:29:02.267Z,99854.97
2022-11-02T16:31:32.498Z,99853.38
2022-11-02T16:34:05.322Z,99861.44
2022-11-02T16:36:37.549Z,99859.22
2022-11-02T16:39:17.435Z,99866.88
2022-11-02T16:41:51.060Z,99865.72
2022-11-02T16:44:26.004Z,99870.97
2022-11-02T16:47:01.433Z,99872.28
2022-11-02T16:49:29.337Z,99883.47
2022-11-02T16:52:00.179Z,99880.69
2022-11-02T16:54:36.565Z,99883.28
2022-11-02T16:57:12.328Z,99883.94
2022-11-02T16:59:59.067Z,99880.94
2022-11-02T17:02:42.821Z,99883.03
2022-11-02T17:05:24.076Z,99895.06
2022-11-02T17:08:08.385Z,99885.81
2022-11-02T17:10:37.927Z,99889.00
2022-11-02T17:13:20.447Z,99892.34
2022-11-02T17:15:51.701Z,99892.22
2022-11-02T17:18:21.873Z,99890.00
2022-11-02T17:21:29.646Z,99889.66
2022-11-02T17:23:59.207Z,99900.03
2022-11-02T17:26:37.373Z,99904.22
2022-11-02T17:29:25.742Z,99907.97
2022-11-02T17:32:00.585Z,99907.84
2022-11-02T17:34:28.385Z,99921.34
2022-11-02T17:36:55.545Z,99925.31
2022-11-02T17:39:22.902Z,99914.66
2022-11-02T17:42:16.785Z,99913.25
2022-11-02T17:44:47.701Z,99923.84
2022-11-02T17:47:18.298Z,99915.53
2022-11-02T17:49:45.577Z,99925.09
2022-11-02T17:52:16.409Z,99923.88
2022-11-02T17:54:43.708Z,99919.00
2022-11-02T17:57:15.579Z,99925.41
2022-11-02T17:59:43.064Z,99929.13
2022-11-02T18:02:15.985Z,99930.59
2022-11-02T18:07:12.166Z,99938.88
2022-11-02T18:09:39.774Z,99950.88
2022-11-02T18:12:09.062Z,99947.59
2022-11-02T18:14:36.689Z,99946.38
2022-11-02T18:17:03.903Z,99946.38
2022-11-02T18:19:32.842Z,99939.84
2022-11-02T18:22:04.676Z,99941.94
2022-11-02T18:24:31.827Z,99952.88
2022-11-02T18:26:59.012Z,99947.75
2022-11-02T18:29:25.996Z,99949.00
2022-11-02T18:31:53.162Z,99951.09
2022-11-02T18:34:20.268Z,99950.72
2022-11-02T18:36:47.519Z,99965.19
2022-11-02T18:39:14.412Z,99959.44
2022-11-02T18:41:42.612Z,99957.44
2022-11-02T18:44:14.883Z,99954.59
2022-11-02T18:46:42.888Z,99965.75
2022-11-02T18:49:09.914Z,99962.47
2022-11-02T18:51:37.305Z,99962.72
2022-11-02T18:54:06.499Z,99976.13
2022-11-02T18:56:34.077Z,99966.66
2022-11-02T18:59:04.332Z,99964.41
2022-11-02T19:01:32.103Z,99964.25
2022-11-02T19:04:00.525Z,99974.59
2022-11-02T19:06:50.611Z,99979.00
2022-11-02T19:09:21.013Z,99984.97
2022-11-02T19:12:00.520Z,99984.22
2022-11-02T19:14:39.571Z,99979.09
2022-11-02T19:17:08.809Z,99982.16
2022-11-02T19:19:36.589Z,99981.78
2022-11-02T19:22:04.339Z,99980.34
2022-11-02T19:24:31.377Z,99976.41
2022-11-02T19:26:59.768Z,99982.19
2022-11-02T19:29:26.888Z,99988.00
2022-11-02T19:31:54.225Z,99995.66
2022-11-02T19:34:21.351Z,100003.31
2022-11-02T19:36:48.704Z,100005.16
2022-11-02T19:39:15.792Z,100009.13
2022-11-02T19:41:43.116Z,100012.22
2022-11-02T19:44:10.046Z,100014.09
2022-11-02T19:46:37.316Z,100019.88
2022-11-02T19:49:04.564Z,100010.56
2022-11-02T19:51:32.441Z,100016.53
2022-11-02T19:54:02.395Z,100012.81
2022-11-02T19:56:34.137Z,100026.44
2022-11-02T19:59:02.367Z,100023.16
2022-11-02T20:01:36.653Z,100026.06
2022-11-02T20:04:05.069Z,100029.16
2022-11-02T20:06:43.977Z,100033.50
2022-11-02T20:09:19.593Z,100034.34
2022-11-02T20:11:48.216Z,100020.94
2022-11-02T20:14:16.856Z,100019.91
2022-11-02T20:16:47.322Z,100021.53
2022-11-02T20:19:21.000Z,100023.63
2022-11-02T20:21:48.260Z,100022.59
2022-11-02T20:30:02.137Z,100041.78
2022-11-02T20:32:29.629Z,100032.31
2022-11-02T20:34:57.574Z,100031.06
2022-11-02T20:37:24.856Z,100035.41
2022-11-02T20:39:52.027Z,100044.03
2022-11-02T20:42:19.031Z,100037.00
2022-11-02T20:44:49.193Z,100035.16
2022-11-02T20:47:16.217Z,100036.41
2022-11-02T20:49:50.528Z,100026.72
2022-11-02T20:52:19.063Z,100037.66
2022-11-02T20:54:46.650Z,100036.03
2022-11-02T20:57:13.604Z,100038.91
2022-11-02T20:59:41.280Z,100039.97
2022-11-02T21:02:11.509Z,100041.22
2022-11-02T21:04:38.859Z,100044.09
2022-11-02T21:07:05.899Z,100045.56
2022-11-02T21:09:33.713Z,100043.09
2022-11-02T21:12:19.344Z,100044.16
2022-11-02T21:14:46.653Z,100044.34
2022-11-02T21:17:13.559Z,100039.22
2022-11-02T21:19:41.040Z,100037.38
2022-11-02T21:22:08.056Z,100050.94
2022-11-02T21:24:35.340Z,100048.50
2022-11-02T21:27:06.632Z,100043.13
2022-11-02T21:29:34.154Z,100037.19
2022-11-02T21:32:02.870Z,100039.84
2022-11-02T21:34:30.512Z,100036.56
2022-11-02T21:36:57.777Z,100045.59
2022-11-02T21:39:25.063Z,100044.16
2022-11-02T21:41:51.996Z,100045.41
2022-11-02T21:44:19.334Z,100039.47
2022-11-02T21:46:46.251Z,100043.16
2022-11-02T21:49:13.586Z,100043.63
2022-11-02T21:51:40.620Z,100044.03
2022-11-02T21:54:07.938Z,100049.81
2022-11-02T21:56:36.000Z,100041.78
2022-11-02T21:59:05.207Z,100051.88
2022-11-02T22:01:46.794Z,100052.91
2022-11-02T22:04:28.810Z,100055.56
2022-11-02T22:06:57.371Z,100061.38
2022-11-02T22:09:25.866Z,100060.97
2022-11-02T22:12:12.697Z,100057.88
2022-11-02T22:14:42.241Z,100051.91
2022-11-02T22:17:21.885Z,100056.03
2022-11-02T22:19:56.152Z,100061.00
2022-11-02T22:22:23.856Z,100057.72
2022-11-02T22:24:51.097Z,100053.19
2022-11-02T22:27:18.214Z,100055.25
2022-11-02T22:29:45.671Z,100054.84
2022-11-02T22:32:14.456Z,100058.13
2022-11-02T22:34:43.492Z,100050.94
2022-11-02T22:37:29.185Z,100053.81
2022-11-02T22:39:56.480Z,100057.72
2022-11-02T22:42:23.572Z,100055.25
2022-11-02T22:44:50.773Z,100057.53
2022-11-02T22:47:17.773Z,100052.41
2022-11-02T22:49:45.101Z,100058.16
2022-11-02T22:52:12.290Z,100062.06
2022-11-02T22:54:39.528Z,100062.72
2022-11-02T22:57:06.412Z,100059.44
2022-11-02T22:59:33.640Z,100067.03
2022-11-02T23:02:00.890Z,100063.97
2022-11-02T23:04:28.301Z,100062.72
2022-11-02T23:06:55.258Z,100077.56
2022-11-02T23:09:22.823Z,100081.25
2022-11-02T23:11:49.836Z,100078.38
2022-11-02T23:14:17.609Z,100073.47
2022-11-02T23:16:47.300Z,100082.09
2022-11-02T23:19:27.930Z,100083.31
2022-11-02T23:22:23.563Z,100091.78
2022-11-02T23:25:11.852Z,100093.19
2022-11-02T23:28:13.592Z,100088.69
2022-11-02T23:31:00.304Z,100082.09
2022-11-02T23:33:33.151Z,100081.69
2022-11-02T23:36:10.952Z,100082.94
2022-11-02T23:39:14.907Z,100082.50
2022-11-02T23:41:41.933Z,100085.78
2022-11-02T23:44:12.574Z,100086.19
2022-11-02T23:46:50.998Z,100093.59
2022-11-02T23:49:18.804Z,100094.84
2022-11-02T23:52:04.171Z,100096.88
2022-11-02T23:54:50.496Z,100092.78
2022-11-02T23:57:18.609Z,100093.00
2022-11-02T23:59:45.947Z,100095.84
